PWSweather.com
Personal Weather Stations
Station Observations
728536
Kristiansand, FlekkeroyNO 4625

KristiansandFlekkeroyNO 4625

Lat: 58.0860587, Lon: 8.0151742

Elevation: 36

Station Type: Davis Vantage Pro2

http://www.paulen.no

High Low Average
Temperature 56.4°F13.6°C 48.5°F9.2°C 52.6°F11.4°C
Dew Point 50.9°F10.5°C 45.4°F7.4°C 48.3°F9.1°C
Winds 13.8 mph 22.2 kmh Calm Calm 6.0 mph WNW9.7 kmh WNW
Wind Gusts 19.6 mph31.5 kmh -- 10.0 mph16.1 kmh
Humidity 91% 76% 85%
Pressure 29.65 in1004.1 mb 29.30 in992.2 mb -
Precipitation 0.05 in1.3 mm - -
Hour Temp Dew Point Humidity Winds Wind Gusts Pressure Precip Precip Rate Daily Precip Total
12:00 AM 53.2°F11.8°C 49.4°F9.7°C 87% 6.9 mph W11.1 kmh W 10.4 mph16.7 kmh 29.30 in992.2 mb - 0.00 in0.0 mm 0.00 in0.0 mm
12:10 AM 53.6°F12.0°C 49.8°F9.9°C 87% 3.5 mph NW5.6 kmh NW 11.5 mph18.5 kmh 29.30 in992.2 mb - 0.00 in0.0 mm 0.00 in0.0 mm
12:20 AM 53.3°F11.8°C 49.9°F9.9°C 88% 3.5 mph NW5.6 kmh NW 5.8 mph9.3 kmh 29.30 in992.2 mb - 0.01 in0.3 mm 0.01 in0.3 mm
12:30 AM 53.3°F11.8°C 49.8°F9.9°C 88% 4.6 mph NW7.4 kmh NW 11.5 mph18.5 kmh 29.30 in992.2 mb - 0.01 in0.3 mm 0.01 in0.3 mm
12:40 AM 53.3°F11.8°C 49.2°F9.6°C 86% 8.1 mph NW13.0 kmh NW 17.3 mph27.8 kmh 29.31 in992.6 mb - 0.01 in0.3 mm 0.01 in0.3 mm
12:50 AM 53.2°F11.8°C 49.4°F9.7°C 87% 4.6 mph WNW7.4 kmh WNW 8.1 mph13.0 kmh 29.31 in992.6 mb - 0.01 in0.3 mm 0.01 in0.3 mm
01:00 AM 53.4°F11.9°C 49.7°F9.8°C 87% 6.9 mph WNW11.1 kmh WNW 10.4 mph16.7 kmh 29.31 in992.6 mb - 0.01 in0.3 mm 0.01 in0.3 mm
01:10 AM 53.8°F12.1°C 49.7°F9.8°C 86% 5.8 mph NNW9.3 kmh NNW 11.5 mph18.5 kmh 29.31 in992.6 mb - 0.01 in0.3 mm 0.01 in0.3 mm
01:20 AM 54.0°F12.2°C 49.9°F9.9°C 86% 5.8 mph NW9.3 kmh NW 11.5 mph18.5 kmh 29.31 in992.6 mb - 0.00 in0.0 mm 0.01 in0.3 mm
01:30 AM 54.1°F12.3°C 50.0°F10.0°C 86% 6.9 mph W11.1 kmh W 11.5 mph18.5 kmh 29.31 in992.6 mb - 0.00 in0.0 mm 0.01 in0.3 mm
01:40 AM 54.0°F12.2°C 49.9°F9.9°C 86% 9.2 mph WSW14.8 kmh WSW 8.1 mph13.0 kmh 29.31 in992.6 mb - 0.00 in0.0 mm 0.01 in0.3 mm
01:50 AM 53.4°F11.9°C 49.7°F9.8°C 87% 3.5 mph NW5.6 kmh NW 9.2 mph14.8 kmh 29.31 in992.6 mb - 0.00 in0.0 mm 0.01 in0.3 mm
02:00 AM 53.4°F11.9°C 49.3°F9.6°C 86% 6.9 mph NW11.1 kmh NW 11.5 mph18.5 kmh 29.31 in992.6 mb - 0.00 in0.0 mm 0.01 in0.3 mm
02:10 AM 53.2°F11.8°C 49.7°F9.8°C 88% 5.8 mph W9.3 kmh W 9.2 mph14.8 kmh 29.32 in992.9 mb - 0.00 in0.0 mm 0.01 in0.3 mm
02:20 AM 52.8°F11.6°C 49.6°F9.8°C 89% 3.5 mph NNW5.6 kmh NNW 6.9 mph11.1 kmh 29.31 in992.6 mb - 0.00 in0.0 mm 0.01 in0.3 mm
02:30 AM 52.9°F11.6°C 49.7°F9.8°C 89% 3.5 mph NW5.6 kmh NW 8.1 mph13.0 kmh 29.32 in992.9 mb - 0.00 in0.0 mm 0.01 in0.3 mm
02:40 AM 52.7°F11.5°C 49.2°F9.6°C 88% 3.5 mph NNW5.6 kmh NNW 3.5 mph5.6 kmh 29.32 in992.9 mb - 0.00 in0.0 mm 0.01 in0.3 mm
02:50 AM 52.7°F11.5°C 49.3°F9.6°C 88% 2.3 mph N3.7 kmh N 5.8 mph9.3 kmh 29.32 in992.9 mb - 0.00 in0.0 mm 0.01 in0.3 mm
03:00 AM 52.6°F11.4°C 49.2°F9.6°C 88% 6.9 mph WNW11.1 kmh WNW 11.5 mph18.5 kmh 29.31 in992.6 mb - 0.00 in0.0 mm 0.01 in0.3 mm
03:10 AM 52.4°F11.3°C 49.3°F9.6°C 89% 3.5 mph WNW5.6 kmh WNW 11.5 mph18.5 kmh 29.32 in992.9 mb - 0.00 in0.0 mm 0.01 in0.3 mm
03:20 AM 52.6°F11.4°C 49.1°F9.5°C 88% 6.9 mph NW11.1 kmh NW 15.0 mph24.1 kmh 29.32 in992.9 mb - 0.00 in0.0 mm 0.01 in0.3 mm
03:30 AM 52.9°F11.6°C 49.1°F9.5°C 87% 6.9 mph W11.1 kmh W 9.2 mph14.8 kmh 29.32 in992.9 mb - 0.00 in0.0 mm 0.01 in0.3 mm
03:40 AM 53.1°F11.7°C 49.0°F9.4°C 86% 6.9 mph NW11.1 kmh NW 13.8 mph22.2 kmh 29.32 in992.9 mb - 0.00 in0.0 mm 0.01 in0.3 mm
03:50 AM 53.1°F11.7°C 49.0°F9.4°C 86% 4.6 mph NW7.4 kmh NW 12.7 mph20.4 kmh 29.32 in992.9 mb - 0.00 in0.0 mm 0.01 in0.3 mm
04:00 AM 53.3°F11.8°C 49.2°F9.6°C 86% 3.5 mph W5.6 kmh W 15.0 mph24.1 kmh 29.32 in992.9 mb - 0.00 in0.0 mm 0.01 in0.3 mm
04:10 AM 53.1°F11.7°C 49.7°F9.8°C 88% 5.8 mph NW9.3 kmh NW 11.5 mph18.5 kmh 29.32 in992.9 mb - 0.00 in0.0 mm 0.01 in0.3 mm
04:20 AM 52.5°F11.4°C 49.1°F9.5°C 88% 4.6 mph WNW7.4 kmh WNW 9.2 mph14.8 kmh 29.32 in992.9 mb - 0.00 in0.0 mm 0.01 in0.3 mm
04:30 AM 52.5°F11.4°C 48.4°F9.1°C 86% 3.5 mph W5.6 kmh W 12.7 mph20.4 kmh 29.32 in992.9 mb - 0.00 in0.0 mm 0.01 in0.3 mm
04:40 AM 52.7°F11.5°C 48.3°F9.1°C 85% 5.8 mph W9.3 kmh W 15.0 mph24.1 kmh 29.32 in992.9 mb - 0.00 in0.0 mm 0.01 in0.3 mm
04:50 AM 52.8°F11.6°C 48.1°F8.9°C 84% 4.6 mph W7.4 kmh W 10.4 mph16.7 kmh 29.32 in992.9 mb - 0.00 in0.0 mm 0.01 in0.3 mm
05:00 AM 52.9°F11.6°C 48.2°F9.0°C 84% 5.8 mph NW9.3 kmh NW 11.5 mph18.5 kmh 29.33 in993.2 mb - 0.00 in0.0 mm 0.01 in0.3 mm
05:10 AM 53.1°F11.7°C 48.4°F9.1°C 84% 9.2 mph W14.8 kmh W 16.1 mph25.9 kmh 29.33 in993.2 mb - 0.00 in0.0 mm 0.01 in0.3 mm
05:20 AM 51.8°F11.0°C 48.7°F9.3°C 89% 3.5 mph W5.6 kmh W 11.5 mph18.5 kmh 29.33 in993.2 mb - 0.00 in0.0 mm 0.01 in0.3 mm
05:30 AM 51.1°F10.6°C 48.3°F9.1°C 90% 4.6 mph NW7.4 kmh NW 8.1 mph13.0 kmh 29.33 in993.2 mb - 0.01 in0.3 mm 0.02 in0.5 mm
05:40 AM 51.3°F10.7°C 48.5°F9.2°C 90% 1.2 mph N1.9 kmh N 3.5 mph5.6 kmh 29.33 in993.2 mb - 0.01 in0.3 mm 0.02 in0.5 mm
05:50 AM 52.1°F11.2°C 49.0°F9.4°C 89% 6.9 mph NNW11.1 kmh NNW 12.7 mph20.4 kmh 29.33 in993.2 mb - 0.01 in0.3 mm 0.02 in0.5 mm
06:00 AM 52.6°F11.4°C 48.5°F9.2°C 86% 4.6 mph W7.4 kmh W 11.5 mph18.5 kmh 29.33 in993.2 mb - 0.01 in0.3 mm 0.02 in0.5 mm
06:10 AM 52.8°F11.6°C 48.5°F9.2°C 85% 8.1 mph NNW13.0 kmh NNW 12.7 mph20.4 kmh 29.33 in993.2 mb - 0.01 in0.3 mm 0.02 in0.5 mm
06:20 AM 53.2°F11.8°C 48.2°F9.0°C 83% 9.2 mph NNW14.8 kmh NNW 13.8 mph22.2 kmh 29.33 in993.2 mb - 0.01 in0.3 mm 0.02 in0.5 mm
06:30 AM 53.1°F11.7°C 48.1°F8.9°C 83% 4.6 mph NNW7.4 kmh NNW 5.8 mph9.3 kmh 29.33 in993.2 mb - 0.00 in0.0 mm 0.02 in0.5 mm
06:40 AM 53.2°F11.8°C 48.8°F9.3°C 85% 6.9 mph W11.1 kmh W 13.8 mph22.2 kmh 29.33 in993.2 mb - 0.00 in0.0 mm 0.02 in0.5 mm
06:50 AM 53.3°F11.8°C 48.6°F9.2°C 84% 5.8 mph NNW9.3 kmh NNW 11.5 mph18.5 kmh 29.33 in993.2 mb - 0.00 in0.0 mm 0.02 in0.5 mm
07:00 AM 53.7°F12.1°C 48.9°F9.4°C 84% 8.1 mph N13.0 kmh N 11.5 mph18.5 kmh 29.33 in993.2 mb - 0.00 in0.0 mm 0.02 in0.5 mm
07:10 AM 53.7°F12.1°C 48.4°F9.1°C 82% 8.1 mph NW13.0 kmh NW 11.5 mph18.5 kmh 29.33 in993.2 mb - 0.00 in0.0 mm 0.02 in0.5 mm
07:20 AM 53.9°F12.2°C 48.6°F9.2°C 82% 9.2 mph NW14.8 kmh NW 18.4 mph29.6 kmh 29.34 in993.6 mb - 0.00 in0.0 mm 0.02 in0.5 mm
07:30 AM 53.9°F12.2°C 48.9°F9.4°C 83% 6.9 mph WNW11.1 kmh WNW 17.3 mph27.8 kmh 29.34 in993.6 mb - 0.00 in0.0 mm 0.02 in0.5 mm
07:40 AM 53.6°F12.0°C 49.2°F9.6°C 85% 13.8 mph N22.2 kmh N 19.6 mph31.5 kmh 29.34 in993.6 mb - 0.00 in0.0 mm 0.02 in0.5 mm
07:50 AM 53.2°F11.8°C 47.9°F8.8°C 82% 10.4 mph NW16.7 kmh NW 19.6 mph31.5 kmh 29.34 in993.6 mb - 0.00 in0.0 mm 0.02 in0.5 mm
08:00 AM 53.1°F11.7°C 47.7°F8.7°C 82% 6.9 mph NW11.1 kmh NW 10.4 mph16.7 kmh 29.34 in993.6 mb - 0.00 in0.0 mm 0.02 in0.5 mm
08:10 AM 53.3°F11.8°C 48.9°F9.4°C 85% 5.8 mph NW9.3 kmh NW 18.4 mph29.6 kmh 29.34 in993.6 mb - 0.00 in0.0 mm 0.02 in0.5 mm
08:20 AM 53.6°F12.0°C 48.8°F9.3°C 84% 5.8 mph W9.3 kmh W 11.5 mph18.5 kmh 29.34 in993.6 mb - 0.00 in0.0 mm 0.02 in0.5 mm
08:30 AM 53.5°F11.9°C 49.1°F9.5°C 85% 13.8 mph NW22.2 kmh NW 17.3 mph27.8 kmh 29.34 in993.6 mb - 0.00 in0.0 mm 0.02 in0.5 mm
08:40 AM 52.7°F11.5°C 49.2°F9.6°C 88% 8.1 mph WNW13.0 kmh WNW 9.2 mph14.8 kmh 29.35 in993.9 mb - 0.01 in0.3 mm 0.02 in0.5 mm
08:50 AM 52.4°F11.3°C 49.3°F9.6°C 89% 3.5 mph NW5.6 kmh NW 5.8 mph9.3 kmh 29.34 in993.6 mb - 0.01 in0.3 mm 0.02 in0.5 mm
09:00 AM 52.2°F11.2°C 49.1°F9.5°C 89% 5.8 mph NNE9.3 kmh NNE 16.1 mph25.9 kmh 29.35 in993.9 mb - 0.01 in0.3 mm 0.02 in0.5 mm
09:10 AM 52.0°F11.1°C 49.5°F9.7°C 91% 5.8 mph NW9.3 kmh NW 11.5 mph18.5 kmh 29.35 in993.9 mb - 0.02 in0.5 mm 0.03 in0.8 mm
09:20 AM 52.8°F11.6°C 49.7°F9.8°C 89% 9.2 mph WNW14.8 kmh WNW 11.5 mph18.5 kmh 29.35 in993.9 mb - 0.02 in0.5 mm 0.03 in0.8 mm
09:30 AM 52.6°F11.4°C 50.0°F10.0°C 91% 5.8 mph W9.3 kmh W 10.4 mph16.7 kmh 29.35 in993.9 mb - 0.02 in0.5 mm 0.03 in0.8 mm
09:40 AM 52.8°F11.6°C 49.6°F9.8°C 89% 5.8 mph W9.3 kmh W 15.0 mph24.1 kmh 29.35 in993.9 mb - 0.01 in0.3 mm 0.03 in0.8 mm
09:50 AM 53.1°F11.7°C 49.3°F9.6°C 87% 8.1 mph NW13.0 kmh NW 9.2 mph14.8 kmh 29.36 in994.2 mb - 0.01 in0.3 mm 0.03 in0.8 mm
10:00 AM 53.4°F11.9°C 49.9°F9.9°C 88% 6.9 mph N11.1 kmh N 8.1 mph13.0 kmh 29.36 in994.2 mb - 0.01 in0.3 mm 0.03 in0.8 mm
10:10 AM 53.7°F12.1°C 49.9°F9.9°C 87% 4.6 mph NW7.4 kmh NW 4.6 mph7.4 kmh 29.36 in994.2 mb - 0.00 in0.0 mm 0.03 in0.8 mm
10:20 AM 54.3°F12.4°C 49.6°F9.8°C 84% 6.9 mph WNW11.1 kmh WNW 9.2 mph14.8 kmh 29.37 in994.6 mb - 0.00 in0.0 mm 0.03 in0.8 mm
10:30 AM 54.2°F12.3°C 49.5°F9.7°C 84% 5.8 mph W9.3 kmh W 12.7 mph20.4 kmh 29.37 in994.6 mb - 0.00 in0.0 mm 0.03 in0.8 mm
10:40 AM 54.7°F12.6°C 50.6°F10.3°C 86% 5.8 mph W9.3 kmh W 11.5 mph18.5 kmh 29.37 in994.6 mb - 0.00 in0.0 mm 0.03 in0.8 mm
10:50 AM 55.2°F12.9°C 49.8°F9.9°C 82% 6.9 mph WNW11.1 kmh WNW 17.3 mph27.8 kmh 29.37 in994.6 mb - 0.00 in0.0 mm 0.03 in0.8 mm
11:00 AM 56.0°F13.3°C 49.5°F9.7°C 79% 6.9 mph NW11.1 kmh NW 16.1 mph25.9 kmh 29.37 in994.6 mb - 0.00 in0.0 mm 0.03 in0.8 mm
11:10 AM 56.4°F13.6°C 49.9°F9.9°C 79% 8.1 mph WNW13.0 kmh WNW 15.0 mph24.1 kmh 29.38 in994.9 mb - 0.00 in0.0 mm 0.03 in0.8 mm
11:20 AM 54.4°F12.4°C 50.0°F10.0°C 85% 6.9 mph NW11.1 kmh NW 11.5 mph18.5 kmh 29.39 in995.3 mb - 0.01 in0.3 mm 0.04 in1.0 mm
11:30 AM 53.8°F12.1°C 49.7°F9.8°C 86% 6.9 mph NW11.1 kmh NW 11.5 mph18.5 kmh 29.39 in995.3 mb - 0.01 in0.3 mm 0.04 in1.0 mm
11:40 AM 53.4°F11.9°C 50.0°F10.0°C 88% 5.8 mph W9.3 kmh W 11.5 mph18.5 kmh 29.39 in995.3 mb - 0.01 in0.3 mm 0.04 in1.0 mm
11:50 AM 54.5°F12.5°C 50.7°F10.4°C 87% 5.8 mph WNW9.3 kmh WNW 8.1 mph13.0 kmh 29.39 in995.3 mb - 0.01 in0.3 mm 0.04 in1.0 mm
12:00 PM 55.3°F12.9°C 50.9°F10.5°C 85% 8.1 mph WNW13.0 kmh WNW 9.2 mph14.8 kmh 29.39 in995.3 mb - 0.01 in0.3 mm 0.04 in1.0 mm
12:10 PM 55.2°F12.9°C 50.7°F10.4°C 85% 6.9 mph W11.1 kmh W 12.7 mph20.4 kmh 29.39 in995.3 mb - 0.01 in0.3 mm 0.04 in1.0 mm
12:20 PM 54.8°F12.7°C 50.0°F10.0°C 84% 5.8 mph NW9.3 kmh NW 13.8 mph22.2 kmh 29.40 in995.6 mb - 0.00 in0.0 mm 0.04 in1.0 mm
12:30 PM 54.8°F12.7°C 49.7°F9.8°C 83% 8.1 mph W13.0 kmh W 11.5 mph18.5 kmh 29.40 in995.6 mb - 0.00 in0.0 mm 0.04 in1.0 mm
12:40 PM 54.5°F12.5°C 50.1°F10.1°C 85% 5.8 mph NW9.3 kmh NW 12.7 mph20.4 kmh 29.40 in995.6 mb - 0.00 in0.0 mm 0.04 in1.0 mm
12:50 PM 55.2°F12.9°C 50.1°F10.1°C 83% 6.9 mph NW11.1 kmh NW 11.5 mph18.5 kmh 29.40 in995.6 mb - 0.00 in0.0 mm 0.04 in1.0 mm
01:00 PM 55.9°F13.3°C 50.5°F10.3°C 82% 5.8 mph WNW9.3 kmh WNW 9.2 mph14.8 kmh 29.41 in995.9 mb - 0.00 in0.0 mm 0.04 in1.0 mm
01:10 PM 56.0°F13.3°C 50.3°F10.2°C 81% 4.6 mph NW7.4 kmh NW 11.5 mph18.5 kmh 29.41 in995.9 mb - 0.00 in0.0 mm 0.04 in1.0 mm
01:20 PM 55.8°F13.2°C 49.7°F9.8°C 80% 10.4 mph NW16.7 kmh NW 18.4 mph29.6 kmh 29.41 in995.9 mb - 0.00 in0.0 mm 0.04 in1.0 mm
01:30 PM 54.8°F12.7°C 49.4°F9.7°C 82% 8.1 mph NW13.0 kmh NW 13.8 mph22.2 kmh 29.42 in996.3 mb - 0.00 in0.0 mm 0.04 in1.0 mm
01:40 PM 55.2°F12.9°C 49.5°F9.7°C 81% 5.8 mph NW9.3 kmh NW 11.5 mph18.5 kmh 29.42 in996.3 mb - 0.00 in0.0 mm 0.04 in1.0 mm
01:50 PM 55.5°F13.1°C 48.8°F9.3°C 78% 9.2 mph WNW14.8 kmh WNW 17.3 mph27.8 kmh 29.43 in996.6 mb - 0.00 in0.0 mm 0.04 in1.0 mm
02:00 PM 55.8°F13.2°C 49.4°F9.7°C 79% 5.8 mph WNW9.3 kmh WNW 15.0 mph24.1 kmh 29.43 in996.6 mb - 0.00 in0.0 mm 0.04 in1.0 mm
02:10 PM 55.8°F13.2°C 49.0°F9.4°C 78% 6.9 mph WNW11.1 kmh WNW 11.5 mph18.5 kmh 29.43 in996.6 mb - 0.00 in0.0 mm 0.04 in1.0 mm
02:20 PM 55.1°F12.8°C 48.4°F9.1°C 78% 8.1 mph NW13.0 kmh NW 12.7 mph20.4 kmh 29.43 in996.6 mb - 0.00 in0.0 mm 0.04 in1.0 mm
02:30 PM 55.2°F12.9°C 48.5°F9.2°C 78% 5.8 mph WNW9.3 kmh WNW 11.5 mph18.5 kmh 29.44 in997.0 mb - 0.00 in0.0 mm 0.04 in1.0 mm
02:40 PM 55.1°F12.8°C 48.0°F8.9°C 77% 5.8 mph NW9.3 kmh NW 10.4 mph16.7 kmh 29.44 in997.0 mb - 0.00 in0.0 mm 0.04 in1.0 mm
02:50 PM 54.7°F12.6°C 49.0°F9.4°C 81% 8.1 mph W13.0 kmh W 11.5 mph18.5 kmh 29.45 in997.3 mb - 0.00 in0.0 mm 0.04 in1.0 mm
03:00 PM 54.2°F12.3°C 48.5°F9.2°C 81% 4.6 mph W7.4 kmh W 10.4 mph16.7 kmh 29.45 in997.3 mb - 0.00 in0.0 mm 0.04 in1.0 mm
03:10 PM 54.2°F12.3°C 47.8°F8.8°C 79% 5.8 mph WNW9.3 kmh WNW 13.8 mph22.2 kmh 29.45 in997.3 mb - 0.00 in0.0 mm 0.04 in1.0 mm
03:20 PM 54.2°F12.3°C 48.2°F9.0°C 80% 4.6 mph WNW7.4 kmh WNW 9.2 mph14.8 kmh 29.46 in997.6 mb - 0.00 in0.0 mm 0.04 in1.0 mm
03:30 PM 54.2°F12.3°C 47.1°F8.4°C 77% 9.2 mph WNW14.8 kmh WNW 12.7 mph20.4 kmh 29.46 in997.6 mb - 0.00 in0.0 mm 0.04 in1.0 mm
03:40 PM 54.3°F12.4°C 46.9°F8.3°C 76% 4.6 mph NNW7.4 kmh NNW 10.4 mph16.7 kmh 29.46 in997.6 mb - 0.00 in0.0 mm 0.04 in1.0 mm
03:50 PM 54.2°F12.3°C 46.8°F8.2°C 76% 10.4 mph W16.7 kmh W 12.7 mph20.4 kmh 29.47 in998.0 mb - 0.00 in0.0 mm 0.04 in1.0 mm
04:00 PM 54.0°F12.2°C 47.3°F8.5°C 78% 5.8 mph NW9.3 kmh NW 12.7 mph20.4 kmh 29.47 in998.0 mb - 0.00 in0.0 mm 0.04 in1.0 mm
04:10 PM 54.0°F12.2°C 47.3°F8.5°C 78% 4.6 mph NW7.4 kmh NW 5.8 mph9.3 kmh 29.48 in998.3 mb - 0.00 in0.0 mm 0.04 in1.0 mm
04:20 PM 53.7°F12.1°C 47.0°F8.3°C 78% 6.9 mph WNW11.1 kmh WNW 10.4 mph16.7 kmh 29.48 in998.3 mb - 0.00 in0.0 mm 0.04 in1.0 mm
04:30 PM 53.6°F12.0°C 47.6°F8.7°C 80% 4.6 mph WNW7.4 kmh WNW 18.4 mph29.6 kmh 29.48 in998.3 mb - 0.00 in0.0 mm 0.04 in1.0 mm
04:40 PM 52.5°F11.4°C 47.1°F8.4°C 82% 8.1 mph WNW13.0 kmh WNW 17.3 mph27.8 kmh 29.49 in998.6 mb - 0.00 in0.0 mm 0.04 in1.0 mm
04:50 PM 51.7°F10.9°C 47.6°F8.7°C 86% 4.6 mph NW7.4 kmh NW 10.4 mph16.7 kmh 29.49 in998.6 mb - 0.00 in0.0 mm 0.04 in1.0 mm
05:00 PM 51.4°F10.8°C 47.9°F8.8°C 88% 5.8 mph N9.3 kmh N 11.5 mph18.5 kmh 29.49 in998.6 mb - 0.00 in0.0 mm 0.04 in1.0 mm
05:10 PM 51.0°F10.6°C 47.3°F8.5°C 87% 8.1 mph W13.0 kmh W 15.0 mph24.1 kmh 29.49 in998.6 mb - 0.00 in0.0 mm 0.04 in1.0 mm
05:20 PM 50.9°F10.5°C 47.5°F8.6°C 88% 4.6 mph W7.4 kmh W 11.5 mph18.5 kmh 29.50 in999.0 mb - 0.00 in0.0 mm 0.04 in1.0 mm
05:30 PM 50.9°F10.5°C 47.5°F8.6°C 88% 5.8 mph WNW9.3 kmh WNW 10.4 mph16.7 kmh 29.50 in999.0 mb - 0.01 in0.3 mm 0.05 in1.3 mm
05:40 PM 51.2°F10.7°C 47.7°F8.7°C 88% 3.5 mph WNW5.6 kmh WNW 8.1 mph13.0 kmh 29.51 in999.3 mb - 0.01 in0.3 mm 0.05 in1.3 mm
05:50 PM 51.2°F10.7°C 47.8°F8.8°C 88% 4.6 mph WNW7.4 kmh WNW 6.9 mph11.1 kmh 29.51 in999.3 mb - 0.01 in0.3 mm 0.05 in1.3 mm
06:00 PM 51.2°F10.7°C 47.7°F8.7°C 88% 6.9 mph W11.1 kmh W 9.2 mph14.8 kmh 29.52 in999.7 mb - 0.01 in0.3 mm 0.05 in1.3 mm
06:10 PM 51.4°F10.8°C 47.9°F8.8°C 88% 4.6 mph W7.4 kmh W 6.9 mph11.1 kmh 29.52 in999.7 mb - 0.01 in0.3 mm 0.05 in1.3 mm
06:20 PM 51.5°F10.8°C 47.8°F8.8°C 87% 6.9 mph WNW11.1 kmh WNW 12.7 mph20.4 kmh 29.53 in1000.0 mb - 0.01 in0.3 mm 0.05 in1.3 mm
06:30 PM 51.5°F10.8°C 47.8°F8.8°C 87% 4.6 mph W7.4 kmh W 10.4 mph16.7 kmh 29.53 in1000.0 mb - 0.00 in0.0 mm 0.05 in1.3 mm
06:40 PM 51.5°F10.8°C 47.8°F8.8°C 87% 4.6 mph W7.4 kmh W 4.6 mph7.4 kmh 29.54 in1000.3 mb - 0.00 in0.0 mm 0.05 in1.3 mm
06:50 PM 51.2°F10.7°C 47.7°F8.7°C 88% 5.8 mph W9.3 kmh W 12.7 mph20.4 kmh 29.54 in1000.3 mb - 0.00 in0.0 mm 0.05 in1.3 mm
07:00 PM 50.9°F10.5°C 47.5°F8.6°C 88% 3.5 mph W5.6 kmh W 12.7 mph20.4 kmh 29.54 in1000.3 mb - 0.00 in0.0 mm 0.05 in1.3 mm
07:10 PM 50.8°F10.4°C 47.7°F8.7°C 89% 5.8 mph W9.3 kmh W 11.5 mph18.5 kmh 29.54 in1000.3 mb - 0.00 in0.0 mm 0.05 in1.3 mm
07:20 PM 50.7°F10.4°C 47.0°F8.3°C 87% 5.8 mph WSW9.3 kmh WSW 11.5 mph18.5 kmh 29.55 in1000.7 mb - 0.00 in0.0 mm 0.05 in1.3 mm
07:30 PM 50.6°F10.3°C 46.6°F8.1°C 86% 4.6 mph WNW7.4 kmh WNW 11.5 mph18.5 kmh 29.55 in1000.7 mb - 0.00 in0.0 mm 0.05 in1.3 mm
07:40 PM 50.6°F10.3°C 46.3°F7.9°C 85% 3.5 mph WNW5.6 kmh WNW 5.8 mph9.3 kmh 29.55 in1000.7 mb - 0.00 in0.0 mm 0.05 in1.3 mm
07:50 PM 50.4°F10.2°C 46.1°F7.8°C 85% 3.5 mph W5.6 kmh W 8.1 mph13.0 kmh 29.56 in1001.0 mb - 0.00 in0.0 mm 0.05 in1.3 mm
08:00 PM 50.5°F10.3°C 46.8°F8.2°C 87% 3.5 mph W5.6 kmh W 6.9 mph11.1 kmh 29.56 in1001.0 mb - 0.00 in0.0 mm 0.05 in1.3 mm
08:10 PM 50.2°F10.1°C 46.8°F8.2°C 88% 3.5 mph W5.6 kmh W 8.1 mph13.0 kmh 29.56 in1001.0 mb - 0.00 in0.0 mm 0.05 in1.3 mm
08:20 PM 49.8°F9.9°C 46.4°F8.0°C 88% 3.5 mph WSW5.6 kmh WSW 9.2 mph14.8 kmh 29.57 in1001.4 mb - 0.00 in0.0 mm 0.05 in1.3 mm
08:30 PM 49.5°F9.7°C 46.1°F7.8°C 88% 2.3 mph W3.7 kmh W 3.5 mph5.6 kmh 29.57 in1001.4 mb - 0.00 in0.0 mm 0.05 in1.3 mm
08:40 PM 49.3°F9.6°C 46.2°F7.9°C 89% 1.2 mph N1.9 kmh N 3.5 mph5.6 kmh 29.58 in1001.7 mb - 0.00 in0.0 mm 0.05 in1.3 mm
08:50 PM 49.6°F9.8°C 46.2°F7.9°C 88% 1.2 mph NW1.9 kmh NW 1.2 mph1.9 kmh 29.59 in1002.0 mb - 0.00 in0.0 mm 0.05 in1.3 mm
09:00 PM 49.6°F9.8°C 46.2°F7.9°C 88% 4.6 mph NNW7.4 kmh NNW 5.8 mph9.3 kmh 29.59 in1002.0 mb - 0.00 in0.0 mm 0.05 in1.3 mm
09:10 PM 49.4°F9.7°C 46.0°F7.8°C 88% 2.3 mph W3.7 kmh W 4.6 mph7.4 kmh 29.59 in1002.0 mb - 0.00 in0.0 mm 0.05 in1.3 mm
09:20 PM 49.3°F9.6°C 46.2°F7.9°C 89% 1.2 mph WNW1.9 kmh WNW 3.5 mph5.6 kmh 29.60 in1002.4 mb - 0.00 in0.0 mm 0.05 in1.3 mm
09:30 PM 49.1°F9.5°C 46.0°F7.8°C 89% 3.5 mph WNW5.6 kmh WNW 6.9 mph11.1 kmh 29.60 in1002.4 mb - 0.00 in0.0 mm 0.05 in1.3 mm
09:40 PM 49.0°F9.4°C 45.9°F7.7°C 89% 4.6 mph WSW7.4 kmh WSW 10.4 mph16.7 kmh 29.61 in1002.7 mb - 0.00 in0.0 mm 0.05 in1.3 mm
09:50 PM 49.0°F9.4°C 45.9°F7.7°C 89% 1.2 mph NW1.9 kmh NW 4.6 mph7.4 kmh 29.61 in1002.7 mb - 0.00 in0.0 mm 0.05 in1.3 mm
10:00 PM 49.2°F9.6°C 46.1°F7.8°C 89% 3.5 mph NW5.6 kmh NW 6.9 mph11.1 kmh 29.62 in1003.0 mb - 0.00 in0.0 mm 0.05 in1.3 mm
10:10 PM 49.4°F9.7°C 46.3°F7.9°C 89% 2.3 mph WSW3.7 kmh WSW 8.1 mph13.0 kmh 29.62 in1003.0 mb - 0.00 in0.0 mm 0.05 in1.3 mm
10:20 PM 49.4°F9.7°C 46.2°F7.9°C 89% 1.2 mph WSW1.9 kmh WSW 4.6 mph7.4 kmh 29.62 in1003.0 mb - 0.00 in0.0 mm 0.05 in1.3 mm
10:30 PM 49.0°F9.4°C 45.9°F7.7°C 89% 3.5 mph W5.6 kmh W 4.6 mph7.4 kmh 29.62 in1003.0 mb - 0.00 in0.0 mm 0.05 in1.3 mm
10:40 PM 49.0°F9.4°C 45.6°F7.6°C 88% 3.5 mph W5.6 kmh W 4.6 mph7.4 kmh 29.63 in1003.4 mb - 0.00 in0.0 mm 0.05 in1.3 mm
10:50 PM 49.0°F9.4°C 45.6°F7.6°C 88% 2.3 mph WNW3.7 kmh WNW 3.5 mph5.6 kmh 29.63 in1003.4 mb - 0.00 in0.0 mm 0.05 in1.3 mm
11:00 PM 49.0°F9.4°C 45.6°F7.6°C 88% 2.3 mph W3.7 kmh W 5.8 mph9.3 kmh 29.63 in1003.4 mb - 0.00 in0.0 mm 0.36 in9.1 mm
11:10 PM 48.8°F9.3°C 45.4°F7.4°C 88% 3.5 mph WNW5.6 kmh WNW 5.8 mph9.3 kmh 29.64 in1003.7 mb - 0.00 in0.0 mm 0.36 in9.1 mm
11:20 PM 48.8°F9.3°C 45.4°F7.4°C 88% Calm Calm 1.2 mph1.9 kmh 29.64 in1003.7 mb - 0.00 in0.0 mm 0.36 in9.1 mm
11:30 PM 48.6°F9.2°C 45.5°F7.5°C 89% Calm Calm 1.2 mph1.9 kmh 29.64 in1003.7 mb - 0.00 in0.0 mm 0.36 in9.1 mm
11:40 PM 48.5°F9.2°C 45.4°F7.4°C 89% 1.2 mph WSW1.9 kmh WSW 2.3 mph3.7 kmh 29.65 in1004.1 mb - 0.00 in0.0 mm 0.36 in9.1 mm
11:50 PM 48.6°F9.2°C 45.8°F7.7°C 90% Calm Calm -- 29.64 in1003.7 mb - 0.00 in0.0 mm 0.36 in9.1 mm